WetterOnline ( https://www.wetteronline.de )

Wetter aktuell Osterfeld

Aktuelles Wetter: Osterfeld (246m)

6-stündlich | Neueste Meldungen
Ortszeit Temperatur Wetter
Mo, 21.10. 20:00 15.7° C bedeckt
Mo, 21.10. 14:00 17.1° C wolkig
Mo, 21.10. 8:00 10.9° C leicht bewölkt
Mo, 21.10. 2:00 12.9° C wolkig
So, 20.10. 20:00 14.9° C wolkig
So, 20.10. 14:00 20.0° C fast wolkenlos
So, 20.10. 8:00 11.0° C bewölkt
So, 20.10. 2:00 12.3° C wolkig
Ortszeit Temperatur Wetter
Di, 22.10. 0:00 12.8° C bedeckt
Mo, 21.10. 23:50 12.8° C bedeckt
Mo, 21.10. 23:40 12.8° C bewölkt
Mo, 21.10. 23:30 13.1° C fast wolkenlos
Mo, 21.10. 23:20 13.1° C fast wolkenlos
Mo, 21.10. 23:10 13.1° C wolkenlos
Mo, 21.10. 23:00 13.7° C fast wolkenlos
Mo, 21.10. 22:30 13.5° C wolkenlos
Mo, 21.10. 22:00 13.6° C leicht bewölkt
Mo, 21.10. 21:30 13.5° C wolkig
Mo, 21.10. 21:00 15.3° C wolkig
Ortszeit Relative Feuchte Sichtweite
Mo, 21.10. 20:00 82% 11 km
Mo, 21.10. 14:00 71% 11 km
Mo, 21.10. 8:00 89% 11 km
Mo, 21.10. 2:00 80% 11 km
So, 20.10. 20:00 83% 11 km
So, 20.10. 14:00 57% 11 km
So, 20.10. 8:00 86% 11 km
So, 20.10. 2:00 82% 11 km
Ortszeit Relative Feuchte Sichtweite
Di, 22.10. 0:00 93% 11 km
Mo, 21.10. 23:50 93% -
Mo, 21.10. 23:40 93% -
Mo, 21.10. 23:30 92% 11 km
Mo, 21.10. 23:20 92% -
Mo, 21.10. 23:10 92% -
Mo, 21.10. 23:00 89% 11 km
Mo, 21.10. 22:30 91% 11 km
Mo, 21.10. 22:00 90% 11 km
Mo, 21.10. 21:30 91% 11 km
Mo, 21.10. 21:00 82% 11 km
Ortszeit Niederschlagsmenge Niederschlagsart
Mo, 21.10. 20:00 0.0 l/m2 in 12 Std. -
Mo, 21.10. 14:00 0.0 l/m2 in 6 Std. -
Mo, 21.10. 8:00 0.0 l/m2 in 12 Std. -
Mo, 21.10. 2:00 0.0 l/m2 in 6 Std. -
So, 20.10. 20:00 0.0 l/m2 in 12 Std. -
So, 20.10. 14:00 0.0 l/m2 in 6 Std. -
So, 20.10. 8:00 0.1 l/m2 in 12 Std. Regen
So, 20.10. 2:00 0.1 l/m2 in 6 Std. Regen
Ortszeit Niederschlagsmenge Niederschlagsart
Di, 22.10. 0:00 0.0 l/m2 in 1 Std. -
Mo, 21.10. 23:50 keine Meldung -
Mo, 21.10. 23:40 keine Meldung -
Mo, 21.10. 23:30 0.0 l/m2 in 1 Std. -
Mo, 21.10. 23:20 keine Meldung -
Mo, 21.10. 23:10 keine Meldung -
Mo, 21.10. 23:00 0.0 l/m2 in 1 Std. -
Mo, 21.10. 22:30 0.0 l/m2 in 1 Std. -
Mo, 21.10. 22:00 0.0 l/m2 in 1 Std. -
Mo, 21.10. 21:30 0.0 l/m2 in 1 Std. -
Mo, 21.10. 21:00 0.0 l/m2 in 1 Std. -
Ortszeit Stärke Spitze Richtung
km/h Bft. km/h Grad Sektor
Mo, 21.10. 20:00 4 1 14 200° S
Mo, 21.10. 14:00 4 1 14 180° S
Mo, 21.10. 8:00 7 2 18 120° SO
Mo, 21.10. 2:00 6 1 20 210° SW
So, 20.10. 20:00 4 1 25 110° O
So, 20.10. 14:00 11 2 22 130° SO
So, 20.10. 8:00 2 1 19 130° SO
So, 20.10. 2:00 7 2 29 150° SO
Ortszeit Stärke Spitze Richtung
km/h Bft. km/h Grad Sektor
Di, 22.10. 0:00 4 1 7 220° SW
Mo, 21.10. 23:50 4 1 - 220° SW
Mo, 21.10. 23:40 4 1 - 220° SW
Mo, 21.10. 23:30 4 1 4 220° SW
Mo, 21.10. 23:20 4 1 - 220° SW
Mo, 21.10. 23:10 - - - - -
Mo, 21.10. 23:00 4 1 9 240° SW
Mo, 21.10. 22:30 4 1 4 210° SW
Mo, 21.10. 22:00 6 1 9 210° SW
Mo, 21.10. 21:30 4 1 9 220° SW
Mo, 21.10. 21:00 4 1 11 250° W
Ortszeit Untergrenze Bedeckung Gattung
total tief tief mittel hoch
Mo, 21.10. 20:00 6000 m 8/8 8/8 - - -
Mo, 21.10. 14:00 4800 m 7/8 1/8 - - -
Mo, 21.10. 8:00 8700 m 5/8 0/8 - - -
Mo, 21.10. 2:00 4200 m 5/8 5/8 - - -
So, 20.10. 20:00 9000 m 7/8 0/8 - - -
So, 20.10. 14:00 8400 m 1/8 0/8 - - -
So, 20.10. 8:00 4500 m 7/8 7/8 - - -
So, 20.10. 2:00 2700 m 8/8 3/8 - - -
Ortszeit Bedeckungsgrad in Achtel und Wolkenuntergrenze
Di, 22.10. 0:00 8(2400m)
Mo, 21.10. 23:50 8(2400m)
Mo, 21.10. 23:40 7(2400m)
Mo, 21.10. 23:30 1(2400m)
Mo, 21.10. 23:20 1(2400m)
Mo, 21.10. 23:10 keine Wolken
Mo, 21.10. 23:00 1(9000m)
Mo, 21.10. 22:30 2(9000m)
Mo, 21.10. 22:00 6(9000m)
Mo, 21.10. 21:30 1(4200m) 7(8700m) 7(9000m)
Mo, 21.10. 21:00 1(2400m) 3(4200m) 8(8400m)
Ortszeit Luftdruck NN (hPa) Tendenz (hPa in 3 Std.)
Mo, 21.10. 20:00 1020 + 1,3
Mo, 21.10. 14:00 1019 + 1,3
Mo, 21.10. 8:00 1015 + 1,5
Mo, 21.10. 2:00 1011 + 0,6
So, 20.10. 20:00 1010 + 0,7
So, 20.10. 14:00 1010 - 0,5
So, 20.10. 8:00 1010 + 0,3
So, 20.10. 2:00 1010 0,0
Ortszeit Luftdruck NN (hPa) Tendenz (hPa in 3 Std.)
Di, 22.10. 0:00 1022 + 1,0
Mo, 21.10. 23:50 1022 keine Meldung
Mo, 21.10. 23:40 1022 keine Meldung
Mo, 21.10. 23:30 1022 + 1,0
Mo, 21.10. 23:20 1022 keine Meldung
Mo, 21.10. 23:10 1022 keine Meldung
Mo, 21.10. 23:00 1022 + 1,2
Mo, 21.10. 22:30 1022 + 1,3
Mo, 21.10. 22:00 1022 + 1,2
Mo, 21.10. 21:30 1021 + 1,4
Mo, 21.10. 21:00 1021 + 1,4
Ortszeit Schneehöhe (cm)
Mo, 21.10. 20:00 0
Mo, 21.10. 14:00 0
Mo, 21.10. 8:00 0
Mo, 21.10. 2:00 0
So, 20.10. 20:00 0
So, 20.10. 14:00 0
So, 20.10. 8:00 0
So, 20.10. 2:00 0
Ortszeit Schneehöhe (cm)
Di, 22.10. 0:00 0
Mo, 21.10. 23:50 0
Mo, 21.10. 23:40 0
Mo, 21.10. 23:30 0
Mo, 21.10. 23:20 0
Mo, 21.10. 23:10 0
Mo, 21.10. 23:00 0
Mo, 21.10. 22:30 0
Mo, 21.10. 22:00 0
Mo, 21.10. 21:30 0
Mo, 21.10. 21:00 0
Link zu dieser Seite / Seite empfehlen

Das Wetter in ...